SKLT/LET METAR and TAF weather

Enter ICAO airport designator
Station Type Date Time Source
SKLT METAR 2021/05/16 00:00 UTC NOAA

SKLT 160000Z 00000KT 9999 FEW013 SCT080 25/25 Q1011 RMK A2987


Station Type Date Time Source
SKLT Decoded METAR 2021/05/16 00:00 UTC NOAA

Leticia / Vasquez Cobo, Colombia (SKLT) 04-10S 069-57W 84M
May 15, 2021 - 08:00 PM EDT / 2021.05.16 0000 UTC
Wind: Calm:0
Visibility: greater than 7 mile(s):0
Sky conditions: partly cloudy
Temperature: 77 F (25 C)
Dew Point: 77 F (25 C)
Relative Humidity: 100%
Pressure (altimeter): 29.85 in. Hg (1011 hPa)
ob: SKLT 160000Z 00000KT 9999 FEW013 SCT080 25/25 Q1011 RMK A2987
cycle: 0

Station Type Date Time Source
SKLT TAF 2021/05/15 18:56 UTC NOAA

TAF SKLT 151630Z 1518/1618 21006KT 9999 BKN015
TEMPO 1518/1521 DZRA BKN012 BKN080
BECMG 1601/1524 VRB02KT SCT010 TX31/1518Z TN23/1610Z

Example: see airport list